createdAt,value
2023-01-19T00:00:23.405Z,90.26
2023-01-19T00:00:55.122Z,90.16
2023-01-19T00:01:27.043Z,90.33
2023-01-19T00:01:58.670Z,90.43
2023-01-19T00:02:30.377Z,89.39
2023-01-19T00:03:07.066Z,89.74
2023-01-19T00:03:38.977Z,90.18
2023-01-19T00:04:10.760Z,90.17
2023-01-19T00:04:44.533Z,89.63
2023-01-19T00:05:16.619Z,89.96
2023-01-19T00:05:48.336Z,89.53
2023-01-19T00:06:22.664Z,89.31
2023-01-19T00:06:54.356Z,90.11
2023-01-19T00:07:25.992Z,90.15
2023-01-19T00:08:14.637Z,89.82
2023-01-19T00:08:48.698Z,89.37
2023-01-19T00:09:22.231Z,89.79
2023-01-19T00:09:55.805Z,90.12
2023-01-19T00:10:29.835Z,89.40
2023-01-19T00:11:02.264Z,89.90
2023-01-19T00:11:33.914Z,90.00
2023-01-19T00:12:06.119Z,90.04
2023-01-19T00:12:37.781Z,89.88
2023-01-19T00:13:09.469Z,89.25
2023-01-19T00:13:52.288Z,89.47
2023-01-19T00:14:23.959Z,89.46
2023-01-19T00:14:58.484Z,89.07
2023-01-19T00:15:30.110Z,88.84
2023-01-19T00:16:01.834Z,89.16
2023-01-19T00:16:33.520Z,89.03
2023-01-19T00:17:05.368Z,88.99
2023-01-19T00:17:37.080Z,89.05
2023-01-19T00:18:10.556Z,89.40
2023-01-19T00:18:42.878Z,88.50
2023-01-19T00:19:14.617Z,89.27
2023-01-19T00:19:46.276Z,89.27
2023-01-19T00:20:19.080Z,90.03
2023-01-19T00:20:50.723Z,89.96
2023-01-19T00:21:22.431Z,89.19
2023-01-19T00:21:56.793Z,89.16
2023-01-19T00:22:30.673Z,88.83
2023-01-19T00:23:04.739Z,89.28
2023-01-19T00:23:36.477Z,89.22
2023-01-19T00:24:08.247Z,88.60
2023-01-19T00:24:39.901Z,88.54
2023-01-19T00:25:19.085Z,88.95
2023-01-19T00:25:51.285Z,88.92
2023-01-19T00:26:22.930Z,89.12
2023-01-19T00:26:54.576Z,88.37
2023-01-19T00:27:26.210Z,89.10
2023-01-19T00:27:59.304Z,89.18
2023-01-19T00:28:32.220Z,89.23
2023-01-19T00:29:06.911Z,89.06
2023-01-19T00:29:38.592Z,89.27
2023-01-19T00:30:10.803Z,88.86
2023-01-19T00:30:42.828Z,88.67
2023-01-19T00:31:14.491Z,89.09
2023-01-19T00:31:46.170Z,88.94
2023-01-19T00:32:18.158Z,88.53
2023-01-19T00:32:49.893Z,88.62
2023-01-19T00:33:21.518Z,89.69
2023-01-19T00:33:53.237Z,88.99
2023-01-19T00:34:24.867Z,89.32
2023-01-19T00:34:58.478Z,88.66
2023-01-19T00:35:30.126Z,88.71
2023-01-19T00:36:01.892Z,88.99
2023-01-19T00:36:34.243Z,88.71
2023-01-19T00:37:07.396Z,89.56
2023-01-19T00:37:39.021Z,89.19
2023-01-19T00:38:14.956Z,89.76
2023-01-19T00:38:46.613Z,89.25
2023-01-19T00:39:18.311Z,89.39
2023-01-19T00:39:50.370Z,89.14
2023-01-19T00:40:23.256Z,89.29
2023-01-19T00:40:54.879Z,89.15
2023-01-19T00:41:45.134Z,89.71
2023-01-19T00:42:35.634Z,89.13
2023-01-19T00:43:09.367Z,89.45
2023-01-19T00:43:43.143Z,89.94
2023-01-19T00:44:14.871Z,90.08
2023-01-19T00:44:49.378Z,89.49
2023-01-19T00:45:23.915Z,89.70
2023-01-19T00:45:55.620Z,89.74
2023-01-19T00:46:27.266Z,90.44
2023-01-19T00:47:01.055Z,90.83
2023-01-19T00:47:33.350Z,91.07
2023-01-19T00:48:05.643Z,91.01
2023-01-19T00:48:37.336Z,90.06
2023-01-19T00:49:09.143Z,90.51
2023-01-19T00:49:43.191Z,89.86
2023-01-19T00:50:20.421Z,89.79
2023-01-19T00:50:52.074Z,89.76
2023-01-19T00:51:25.323Z,90.31
2023-01-19T00:51:57.294Z,90.08
2023-01-19T00:52:31.327Z,90.45
2023-01-19T00:53:05.831Z,90.04
2023-01-19T00:53:39.526Z,90.46
2023-01-19T00:54:13.867Z,90.29
2023-01-19T00:54:45.511Z,90.29
2023-01-19T00:55:17.287Z,89.87
2023-01-19T00:55:48.909Z,90.09
2023-01-19T00:56:20.583Z,90.12
2023-01-19T00:56:52.223Z,90.06
2023-01-19T00:57:23.943Z,90.65
2023-01-19T00:57:56.243Z,91.15
2023-01-19T00:58:27.911Z,91.09
2023-01-19T00:59:03.145Z,90.42
2023-01-19T00:59:34.896Z,90.36
2023-01-19T01:00:11.636Z,90.24
2023-01-19T01:00:44.670Z,90.03
2023-01-19T01:01:16.465Z,90.12
2023-01-19T01:01:48.289Z,91.04
2023-01-19T01:02:20.067Z,90.54
2023-01-19T01:02:53.077Z,90.08
2023-01-19T01:03:36.298Z,90.89
2023-01-19T01:04:07.957Z,90.38
2023-01-19T01:04:39.651Z,91.13
2023-01-19T01:05:12.525Z,90.79
2023-01-19T01:05:44.129Z,90.55
2023-01-19T01:06:15.791Z,90.27
2023-01-19T01:06:47.498Z,90.60
2023-01-19T01:07:20.916Z,91.25
2023-01-19T01:07:52.548Z,90.20
2023-01-19T01:08:24.367Z,89.89
2023-01-19T01:08:58.460Z,89.83
2023-01-19T01:09:33.304Z,90.26
2023-01-19T01:10:07.618Z,90.45
2023-01-19T01:10:42.783Z,90.57
2023-01-19T01:11:14.575Z,90.45
2023-01-19T01:11:46.222Z,90.23
2023-01-19T01:12:26.652Z,90.36
2023-01-19T01:13:19.391Z,89.61
2023-01-19T01:13:53.018Z,90.02
2023-01-19T01:14:26.797Z,89.87
2023-01-19T01:14:58.473Z,90.48
2023-01-19T01:15:30.585Z,89.91
2023-01-19T01:16:03.917Z,89.49
2023-01-19T01:16:35.626Z,89.53
2023-01-19T01:17:13.738Z,90.10
2023-01-19T01:17:48.957Z,89.35
2023-01-19T01:18:22.021Z,89.88
2023-01-19T01:18:53.684Z,90.18
2023-01-19T01:19:25.383Z,90.06
2023-01-19T01:20:04.269Z,89.17
2023-01-19T01:20:37.504Z,89.31
2023-01-19T01:21:09.685Z,90.13
2023-01-19T01:21:42.072Z,89.88
2023-01-19T01:22:16.290Z,89.58
2023-01-19T01:22:53.765Z,89.79
2023-01-19T01:23:25.415Z,89.66
2023-01-19T01:23:58.579Z,89.94
2023-01-19T01:24:30.354Z,89.69
2023-01-19T01:25:01.949Z,89.71
2023-01-19T01:25:37.469Z,89.58
2023-01-19T01:26:10.656Z,89.64
2023-01-19T01:26:42.307Z,90.07
2023-01-19T01:27:13.979Z,89.33
2023-01-19T01:27:45.665Z,90.02
2023-01-19T01:28:17.318Z,90.07
2023-01-19T01:28:48.960Z,90.16
2023-01-19T01:29:20.620Z,89.94
2023-01-19T01:29:56.535Z,90.28
2023-01-19T01:30:28.160Z,89.77
2023-01-19T01:30:59.804Z,90.04
2023-01-19T01:31:31.664Z,89.57
2023-01-19T01:32:04.226Z,90.13
2023-01-19T01:32:36.172Z,89.62
2023-01-19T01:33:08.327Z,90.13
2023-01-19T01:33:41.798Z,89.21
2023-01-19T01:34:13.746Z,89.39
2023-01-19T01:34:45.493Z,89.80
2023-01-19T01:35:17.563Z,89.48
2023-01-19T01:35:50.478Z,90.09
2023-01-19T01:36:26.578Z,89.33
2023-01-19T01:36:58.253Z,89.19
2023-01-19T01:37:32.726Z,89.28
2023-01-19T01:38:04.378Z,89.50
2023-01-19T01:38:36.038Z,89.08
2023-01-19T01:39:07.656Z,89.77
2023-01-19T01:39:39.308Z,89.71
2023-01-19T01:40:14.893Z,90.13
2023-01-19T01:40:46.517Z,89.88
2023-01-19T01:41:18.159Z,89.26
2023-01-19T01:41:54.010Z,89.81
2023-01-19T01:42:30.732Z,89.89
2023-01-19T01:43:03.504Z,89.58
2023-01-19T01:43:52.785Z,89.95
2023-01-19T01:44:55.403Z,89.08
2023-01-19T01:45:40.946Z,89.34
2023-01-19T01:46:15.555Z,89.49
2023-01-19T01:46:47.403Z,89.98
2023-01-19T01:47:49.261Z,88.93
2023-01-19T01:48:25.657Z,88.69
2023-01-19T01:49:04.386Z,89.71
2023-01-19T01:49:36.471Z,89.45
2023-01-19T01:50:20.541Z,89.70
2023-01-19T01:51:17.927Z,89.69
2023-01-19T01:51:55.776Z,89.45
2023-01-19T01:52:34.700Z,88.83
2023-01-19T01:53:12.196Z,88.70
2023-01-19T01:53:47.475Z,89.00
2023-01-19T01:54:21.666Z,88.36
2023-01-19T01:54:53.757Z,89.39
2023-01-19T01:55:27.446Z,89.14
2023-01-19T01:56:01.819Z,89.68
2023-01-19T01:56:40.318Z,90.30
2023-01-19T01:57:13.183Z,89.85
2023-01-19T01:57:53.114Z,89.88
2023-01-19T01:58:24.875Z,90.19
2023-01-19T01:58:58.261Z,90.70
2023-01-19T01:59:39.307Z,89.71
2023-01-19T02:00:11.954Z,90.69
2023-01-19T02:01:02.234Z,90.27
2023-01-19T02:01:52.919Z,90.90
2023-01-19T02:02:47.643Z,90.58
2023-01-19T02:03:22.294Z,90.13
2023-01-19T02:03:56.322Z,90.46
2023-01-19T02:04:29.877Z,89.68
2023-01-19T02:05:07.888Z,89.79
2023-01-19T02:05:40.277Z,90.06
2023-01-19T02:06:13.702Z,90.75
2023-01-19T02:07:08.808Z,89.87
2023-01-19T02:08:12.476Z,89.87
2023-01-19T02:09:10.610Z,90.33
2023-01-19T02:10:03.348Z,90.21
2023-01-19T02:10:54.564Z,90.49
2023-01-19T02:11:45.305Z,90.48
2023-01-19T02:12:35.854Z,91.33
2023-01-19T02:13:25.577Z,90.46
2023-01-19T02:13:57.506Z,91.31
2023-01-19T02:14:29.135Z,90.91
2023-01-19T02:15:02.986Z,91.18
2023-01-19T02:15:34.604Z,91.65
2023-01-19T02:16:10.743Z,91.82
2023-01-19T02:16:42.785Z,91.68
2023-01-19T02:17:17.027Z,92.08
2023-01-19T02:17:51.278Z,91.69
2023-01-19T02:18:29.011Z,91.78
2023-01-19T02:19:01.228Z,91.41
2023-01-19T02:19:43.689Z,91.30
2023-01-19T02:20:16.159Z,91.83
2023-01-19T02:21:18.903Z,91.39
2023-01-19T02:22:36.116Z,91.24
2023-01-19T02:23:18.700Z,90.54
2023-01-19T02:23:51.789Z,90.83
2023-01-19T02:24:24.472Z,91.22
2023-01-19T02:24:57.083Z,91.02
2023-01-19T02:25:30.387Z,91.32
2023-01-19T02:26:03.386Z,91.33
2023-01-19T02:26:47.144Z,91.36
2023-01-19T02:27:22.310Z,91.09
2023-01-19T02:27:54.040Z,90.84
2023-01-19T02:28:28.354Z,90.25
2023-01-19T02:29:07.365Z,90.27
2023-01-19T02:29:41.958Z,90.24
2023-01-19T02:30:14.381Z,89.91
2023-01-19T02:30:46.148Z,90.01
2023-01-19T02:31:23.953Z,90.73
2023-01-19T02:31:59.661Z,90.55
2023-01-19T02:32:31.375Z,90.42
2023-01-19T02:33:05.233Z,91.29
2023-01-19T02:33:39.608Z,90.26
2023-01-19T02:34:15.532Z,90.18
2023-01-19T02:34:48.448Z,91.28
2023-01-19T02:35:22.849Z,90.51
2023-01-19T02:35:56.889Z,91.23
2023-01-19T02:36:38.701Z,90.97
2023-01-19T02:37:14.942Z,91.04
2023-01-19T02:37:47.879Z,90.37
2023-01-19T02:38:24.037Z,90.56
2023-01-19T02:38:57.891Z,90.96
2023-01-19T02:39:36.471Z,90.02
2023-01-19T02:40:19.820Z,90.03
2023-01-19T02:40:55.709Z,90.12
2023-01-19T02:41:34.311Z,90.81
2023-01-19T02:42:18.077Z,90.32
2023-01-19T02:42:55.083Z,90.31
2023-01-19T02:43:32.594Z,90.48
2023-01-19T02:44:09.470Z,90.63
2023-01-19T02:44:46.990Z,90.32
2023-01-19T02:45:22.186Z,90.92
2023-01-19T02:45:54.556Z,90.71
2023-01-19T02:46:28.234Z,90.54
2023-01-19T02:46:59.917Z,90.25
2023-01-19T02:47:45.402Z,90.29
2023-01-19T02:48:23.202Z,90.82
2023-01-19T02:49:02.174Z,90.78
2023-01-19T02:49:36.261Z,90.91
2023-01-19T02:50:53.417Z,90.25
2023-01-19T02:51:25.194Z,90.09
2023-01-19T02:51:59.011Z,90.21
2023-01-19T02:52:31.231Z,90.17
2023-01-19T02:53:28.015Z,90.54
2023-01-19T02:54:16.610Z,91.09
2023-01-19T02:54:54.262Z,90.83
2023-01-19T02:55:29.721Z,91.01
2023-01-19T02:56:24.824Z,90.85
2023-01-19T02:57:05.150Z,90.67
2023-01-19T02:57:48.922Z,90.11
2023-01-19T02:58:34.570Z,90.17
2023-01-19T02:59:21.044Z,90.22
2023-01-19T03:00:30.015Z,90.03
2023-01-19T03:01:27.888Z,90.32
2023-01-19T03:02:29.613Z,90.77
2023-01-19T03:03:30.483Z,90.38
2023-01-19T03:04:17.953Z,90.74
2023-01-19T03:05:27.246Z,90.28
2023-01-19T03:06:14.536Z,90.62
2023-01-19T03:06:50.942Z,90.66
2023-01-19T03:07:40.453Z,90.26
2023-01-19T03:08:36.218Z,90.62
2023-01-19T03:09:34.797Z,90.92
2023-01-19T03:10:13.385Z,89.61
2023-01-19T03:11:01.416Z,90.33
2023-01-19T03:11:46.891Z,89.87
2023-01-19T03:12:47.095Z,89.68
2023-01-19T03:13:42.392Z,89.51
2023-01-19T03:14:21.989Z,89.47
2023-01-19T03:15:01.702Z,89.71
2023-01-19T03:15:47.630Z,90.02
2023-01-19T03:16:27.268Z,89.91
2023-01-19T03:17:03.333Z,90.54
2023-01-19T03:17:38.110Z,90.36
2023-01-19T03:18:14.783Z,89.57
2023-01-19T03:18:54.064Z,89.63
2023-01-19T03:19:39.620Z,90.45
2023-01-19T03:20:15.566Z,90.54
2023-01-19T03:20:53.527Z,90.11
2023-01-19T03:21:29.823Z,89.56
2023-01-19T03:22:09.286Z,89.57
2023-01-19T03:22:49.770Z,89.91
2023-01-19T03:23:30.265Z,89.54
2023-01-19T03:24:06.345Z,90.36
2023-01-19T03:24:45.458Z,90.37
2023-01-19T03:25:22.452Z,90.02
2023-01-19T03:25:59.137Z,89.86
2023-01-19T03:26:37.540Z,90.78
2023-01-19T03:27:17.468Z,90.20
2023-01-19T03:27:54.021Z,90.43
2023-01-19T03:28:29.341Z,90.93
2023-01-19T03:29:03.294Z,90.12
2023-01-19T03:29:38.659Z,90.80
2023-01-19T03:30:22.499Z,90.74
2023-01-19T03:31:18.718Z,90.44
2023-01-19T03:31:53.126Z,90.72
2023-01-19T03:32:32.975Z,89.97
2023-01-19T03:33:27.764Z,90.67
2023-01-19T03:34:08.402Z,90.98
2023-01-19T03:34:44.290Z,90.93
2023-01-19T03:35:19.357Z,90.93
2023-01-19T03:35:58.254Z,91.14
2023-01-19T03:36:38.061Z,91.34
2023-01-19T03:37:14.275Z,91.66
2023-01-19T03:37:50.700Z,91.08
2023-01-19T03:38:26.608Z,91.75
2023-01-19T03:39:00.157Z,91.55
2023-01-19T03:39:32.030Z,91.37
2023-01-19T03:40:04.025Z,91.69
2023-01-19T03:40:38.916Z,92.28
2023-01-19T03:41:16.738Z,92.38
2023-01-19T03:41:51.770Z,92.31
2023-01-19T03:42:27.182Z,92.02
2023-01-19T03:43:03.000Z,92.01
2023-01-19T03:43:39.657Z,92.35
2023-01-19T03:44:12.148Z,91.78
2023-01-19T03:44:52.743Z,91.63
2023-01-19T03:45:25.154Z,92.18
2023-01-19T03:45:57.946Z,91.55
2023-01-19T03:46:30.969Z,92.17
2023-01-19T03:47:04.966Z,91.71
2023-01-19T03:47:36.698Z,92.17
2023-01-19T03:48:08.861Z,92.24
2023-01-19T03:48:41.861Z,91.96
2023-01-19T03:49:14.137Z,91.89
2023-01-19T03:49:50.344Z,92.49
2023-01-19T03:50:29.560Z,91.95
2023-01-19T03:51:10.658Z,91.94
2023-01-19T03:51:42.569Z,92.20
2023-01-19T03:52:14.256Z,92.35
2023-01-19T03:52:48.723Z,91.83
2023-01-19T03:53:21.627Z,92.27
2023-01-19T03:53:53.320Z,91.96
2023-01-19T03:54:27.699Z,91.86
2023-01-19T03:55:04.550Z,92.22
2023-01-19T03:55:42.078Z,91.38
2023-01-19T03:56:25.203Z,92.14
2023-01-19T03:56:57.724Z,91.14
2023-01-19T03:57:29.441Z,91.57
2023-01-19T03:58:01.099Z,91.59
2023-01-19T03:58:32.742Z,91.73
2023-01-19T03:59:07.460Z,91.54
2023-01-19T03:59:39.070Z,91.39
2023-01-19T04:00:11.544Z,91.73
2023-01-19T04:00:43.324Z,91.60
2023-01-19T04:01:16.619Z,91.45
2023-01-19T04:01:48.820Z,91.61
2023-01-19T04:02:21.833Z,91.38
2023-01-19T04:02:53.618Z,91.48
2023-01-19T04:03:25.281Z,91.56
2023-01-19T04:03:57.008Z,91.85
2023-01-19T04:04:28.679Z,91.66
2023-01-19T04:05:00.312Z,91.26
2023-01-19T04:05:32.537Z,92.01
2023-01-19T04:06:04.368Z,91.53
2023-01-19T04:06:38.170Z,91.75
2023-01-19T04:07:11.063Z,91.30
2023-01-19T04:07:42.777Z,91.41
2023-01-19T04:08:14.439Z,91.76
2023-01-19T04:08:49.367Z,91.73
2023-01-19T04:09:21.018Z,92.23
2023-01-19T04:09:52.643Z,92.09
2023-01-19T04:10:24.992Z,91.87
2023-01-19T04:10:59.900Z,91.85
2023-01-19T04:11:31.768Z,91.64
2023-01-19T04:12:04.136Z,92.19
2023-01-19T04:12:35.781Z,91.65
2023-01-19T04:13:07.465Z,91.94
2023-01-19T04:13:39.203Z,91.67
2023-01-19T04:14:10.852Z,91.18
2023-01-19T04:14:42.507Z,91.45
2023-01-19T04:15:15.588Z,91.65
2023-01-19T04:15:47.557Z,91.75
2023-01-19T04:16:21.209Z,92.07
2023-01-19T04:16:55.737Z,91.49
2023-01-19T04:17:27.366Z,91.79
2023-01-19T04:18:03.110Z,91.94
2023-01-19T04:18:34.996Z,91.52
2023-01-19T04:19:06.639Z,92.09
2023-01-19T04:19:38.330Z,92.38
2023-01-19T04:20:10.665Z,92.21
2023-01-19T04:20:42.311Z,91.94
2023-01-19T04:21:15.924Z,91.61
2023-01-19T04:21:51.070Z,92.04
2023-01-19T04:22:25.161Z,91.60
2023-01-19T04:23:01.331Z,91.34
2023-01-19T04:23:33.804Z,91.89
2023-01-19T04:24:05.771Z,91.16
2023-01-19T04:24:37.425Z,91.90
2023-01-19T04:25:12.431Z,91.68
2023-01-19T04:25:44.091Z,91.71
2023-01-19T04:26:17.309Z,91.81
2023-01-19T04:26:53.148Z,91.54
2023-01-19T04:27:26.086Z,91.61
2023-01-19T04:28:08.062Z,91.55
2023-01-19T04:28:39.735Z,91.54
2023-01-19T04:29:11.429Z,91.90
2023-01-19T04:29:43.648Z,91.65
2023-01-19T04:30:15.456Z,91.84
2023-01-19T04:30:52.875Z,91.91
2023-01-19T04:31:24.688Z,91.85
2023-01-19T04:32:05.563Z,91.91
2023-01-19T04:32:37.182Z,92.35
2023-01-19T04:33:08.951Z,92.08
2023-01-19T04:33:40.589Z,91.97
2023-01-19T04:34:12.266Z,91.97
2023-01-19T04:34:43.950Z,91.77
2023-01-19T04:35:16.992Z,92.11
2023-01-19T04:35:51.215Z,91.90
2023-01-19T04:36:26.258Z,92.07
2023-01-19T04:36:57.902Z,92.18
2023-01-19T04:37:29.589Z,92.21
2023-01-19T04:38:01.248Z,92.04
2023-01-19T04:38:32.886Z,91.98
2023-01-19T04:39:05.068Z,92.10
2023-01-19T04:39:36.710Z,91.77
2023-01-19T04:40:09.151Z,92.01
2023-01-19T04:40:41.984Z,92.04
2023-01-19T04:41:13.789Z,92.02
2023-01-19T04:41:45.482Z,91.90
2023-01-19T04:42:20.000Z,92.03
2023-01-19T04:42:51.653Z,92.33
2023-01-19T04:43:27.113Z,92.40
2023-01-19T04:43:58.774Z,92.76
2023-01-19T04:44:30.429Z,92.21
2023-01-19T04:45:02.119Z,92.58
2023-01-19T04:45:34.108Z,92.31
2023-01-19T04:46:05.814Z,92.37
2023-01-19T04:46:37.534Z,92.76
2023-01-19T04:47:09.546Z,92.27
2023-01-19T04:47:42.715Z,92.73
2023-01-19T04:48:15.366Z,92.75
2023-01-19T04:48:46.991Z,92.76
2023-01-19T04:49:21.368Z,93.30
2023-01-19T04:49:53.104Z,92.48
2023-01-19T04:50:28.243Z,92.28
2023-01-19T04:50:59.980Z,92.35
2023-01-19T04:51:34.183Z,92.98
2023-01-19T04:52:06.316Z,92.27
2023-01-19T04:52:38.543Z,92.59
2023-01-19T04:53:11.000Z,92.51
2023-01-19T04:53:42.681Z,92.14
2023-01-19T04:54:14.391Z,92.26
2023-01-19T04:54:46.108Z,92.21
2023-01-19T04:55:18.481Z,92.29
2023-01-19T04:55:55.003Z,92.10
2023-01-19T04:56:26.649Z,92.08
2023-01-19T04:57:00.424Z,92.35
2023-01-19T04:57:35.394Z,92.43
2023-01-19T04:58:07.128Z,92.16
2023-01-19T04:58:41.377Z,92.04
2023-01-19T04:59:13.634Z,91.86
2023-01-19T04:59:45.428Z,91.78
2023-01-19T05:00:20.241Z,91.96
2023-01-19T05:00:53.128Z,92.06
2023-01-19T05:01:25.252Z,91.91
2023-01-19T05:01:56.984Z,92.23
2023-01-19T05:02:28.689Z,91.74
2023-01-19T05:03:01.640Z,92.29
2023-01-19T05:03:33.591Z,92.19
2023-01-19T05:04:07.082Z,91.90
2023-01-19T05:04:38.714Z,92.29
2023-01-19T05:05:10.395Z,91.94
2023-01-19T05:05:42.026Z,92.21
2023-01-19T05:06:13.692Z,92.03
2023-01-19T05:06:45.305Z,92.26
2023-01-19T05:07:17.310Z,91.81
2023-01-19T05:07:48.933Z,92.19
2023-01-19T05:08:20.638Z,92.42
2023-01-19T05:08:54.937Z,92.13
2023-01-19T05:09:27.377Z,92.53
2023-01-19T05:09:59.112Z,92.31
2023-01-19T05:10:30.768Z,92.15
2023-01-19T05:11:02.434Z,92.21
2023-01-19T05:11:34.077Z,91.89
2023-01-19T05:12:05.880Z,92.48
2023-01-19T05:12:37.629Z,92.52
2023-01-19T05:13:09.290Z,92.15
2023-01-19T05:13:40.953Z,92.07
2023-01-19T05:14:12.588Z,92.43
2023-01-19T05:14:44.348Z,91.78
2023-01-19T05:15:16.065Z,91.99
2023-01-19T05:15:47.773Z,92.03
2023-01-19T05:16:27.066Z,92.19
2023-01-19T05:16:58.809Z,92.07
2023-01-19T05:17:32.095Z,92.36
2023-01-19T05:18:03.856Z,92.17
2023-01-19T05:18:37.068Z,92.00
2023-01-19T05:19:08.815Z,92.24
2023-01-19T05:19:40.536Z,92.13
2023-01-19T05:20:15.863Z,91.66
2023-01-19T05:20:47.961Z,92.17
2023-01-19T05:21:20.126Z,92.52
2023-01-19T05:21:51.856Z,91.86
2023-01-19T05:22:23.543Z,92.03
2023-01-19T05:22:55.237Z,92.20
2023-01-19T05:23:28.225Z,92.10
2023-01-19T05:23:59.837Z,92.12
2023-01-19T05:24:31.981Z,92.03
2023-01-19T05:25:05.651Z,92.15
2023-01-19T05:25:37.306Z,92.52
2023-01-19T05:26:11.863Z,91.82
2023-01-19T05:26:43.528Z,92.07
2023-01-19T05:27:15.236Z,91.89
2023-01-19T05:27:52.113Z,91.87
2023-01-19T05:28:26.420Z,92.02
2023-01-19T05:28:58.115Z,92.22
2023-01-19T05:29:31.383Z,91.67
2023-01-19T05:30:05.051Z,91.71
2023-01-19T05:30:44.498Z,92.14
2023-01-19T05:31:18.495Z,92.20
2023-01-19T05:31:50.549Z,91.99
2023-01-19T05:32:22.341Z,91.89
2023-01-19T05:32:53.999Z,92.50
2023-01-19T05:33:27.414Z,92.16
2023-01-19T05:33:59.125Z,92.26
2023-01-19T05:34:30.773Z,92.24
2023-01-19T05:35:02.665Z,92.02
2023-01-19T05:35:36.277Z,92.21
2023-01-19T05:36:08.332Z,92.20
2023-01-19T05:36:43.069Z,92.13
2023-01-19T05:37:14.721Z,92.47
2023-01-19T05:37:46.563Z,92.64
2023-01-19T05:38:26.253Z,91.93
2023-01-19T05:39:01.210Z,92.07
2023-01-19T05:39:33.503Z,91.97
2023-01-19T05:40:06.145Z,91.97
2023-01-19T05:40:37.786Z,92.62
2023-01-19T05:41:12.128Z,92.25
2023-01-19T05:41:47.910Z,92.55
2023-01-19T05:42:19.694Z,92.31
2023-01-19T05:42:53.318Z,92.40
2023-01-19T05:43:25.502Z,92.65
2023-01-19T05:43:57.470Z,92.09
2023-01-19T05:44:29.725Z,92.70
2023-01-19T05:45:03.567Z,92.56
2023-01-19T05:45:35.280Z,92.62
2023-01-19T05:46:09.796Z,92.35
2023-01-19T05:46:41.502Z,92.33
2023-01-19T05:47:13.207Z,92.20
2023-01-19T05:47:44.860Z,92.03
2023-01-19T05:48:16.527Z,91.90
2023-01-19T05:48:48.169Z,92.25
2023-01-19T05:49:19.784Z,92.29
2023-01-19T05:49:51.462Z,92.39
2023-01-19T05:50:25.902Z,92.12
2023-01-19T05:50:59.087Z,92.59
2023-01-19T05:51:34.988Z,93.40
2023-01-19T05:52:06.641Z,92.97
2023-01-19T05:52:38.318Z,92.28
2023-01-19T05:53:09.981Z,93.07
2023-01-19T05:53:41.847Z,92.75
2023-01-19T05:54:18.076Z,92.28
2023-01-19T05:54:53.808Z,93.15
2023-01-19T05:55:28.579Z,92.41
2023-01-19T05:56:08.193Z,92.55
2023-01-19T05:56:40.136Z,92.83
2023-01-19T05:57:11.886Z,92.72
2023-01-19T05:57:43.564Z,92.75
2023-01-19T05:58:15.199Z,92.96
2023-01-19T05:58:46.824Z,93.41
2023-01-19T05:59:26.192Z,93.02
2023-01-19T05:59:57.821Z,93.02
2023-01-19T06:00:32.043Z,93.25
2023-01-19T06:01:10.245Z,92.72
2023-01-19T06:01:42.054Z,92.82
2023-01-19T06:02:13.914Z,92.79
2023-01-19T06:02:48.425Z,92.98
2023-01-19T06:03:20.227Z,92.74
2023-01-19T06:03:51.919Z,92.69
2023-01-19T06:04:23.641Z,92.38
2023-01-19T06:04:55.290Z,92.47
2023-01-19T06:05:27.488Z,92.36
2023-01-19T06:06:00.313Z,92.97
2023-01-19T06:06:32.144Z,92.78
2023-01-19T06:07:05.300Z,92.60
2023-01-19T06:07:38.315Z,92.63
2023-01-19T06:08:09.983Z,92.60
2023-01-19T06:08:42.416Z,92.61
2023-01-19T06:09:16.897Z,92.61
2023-01-19T06:09:48.546Z,92.58
2023-01-19T06:10:20.252Z,92.68
2023-01-19T06:10:54.536Z,92.59
2023-01-19T06:11:30.651Z,92.58
2023-01-19T06:12:02.315Z,92.99
2023-01-19T06:12:34.036Z,92.86
2023-01-19T06:13:06.043Z,93.10
2023-01-19T06:13:41.257Z,92.77
2023-01-19T06:14:16.347Z,92.63
2023-01-19T06:14:51.002Z,92.96
2023-01-19T06:15:22.955Z,93.52
2023-01-19T06:16:08.179Z,92.91
2023-01-19T06:16:39.925Z,92.83
2023-01-19T06:17:11.569Z,93.37
2023-01-19T06:17:43.209Z,93.12
2023-01-19T06:18:15.090Z,92.79
2023-01-19T06:18:49.046Z,93.32
2023-01-19T06:19:22.917Z,93.25
2023-01-19T06:19:54.544Z,93.32
2023-01-19T06:20:26.188Z,92.78
2023-01-19T06:21:02.490Z,93.18
2023-01-19T06:21:34.770Z,93.02
2023-01-19T06:22:09.409Z,93.14
2023-01-19T06:22:41.183Z,93.36
2023-01-19T06:23:20.070Z,92.85
2023-01-19T06:23:56.325Z,93.15
2023-01-19T06:24:28.098Z,92.97
2023-01-19T06:24:59.826Z,93.13
2023-01-19T06:25:35.612Z,93.35
2023-01-19T06:26:07.644Z,92.77
2023-01-19T06:26:39.355Z,92.76
2023-01-19T06:27:11.365Z,93.08
2023-01-19T06:27:46.227Z,93.21
2023-01-19T06:28:18.275Z,93.05
2023-01-19T06:28:52.414Z,92.99
2023-01-19T06:29:24.138Z,93.53
2023-01-19T06:29:55.798Z,92.71
2023-01-19T06:30:27.801Z,93.29
2023-01-19T06:30:59.539Z,92.47
2023-01-19T06:31:31.304Z,92.84
2023-01-19T06:32:03.281Z,92.68
2023-01-19T06:32:36.280Z,93.45
2023-01-19T06:33:07.915Z,93.05
2023-01-19T06:33:39.601Z,93.03
2023-01-19T06:34:11.506Z,92.86
2023-01-19T06:34:43.883Z,93.55
2023-01-19T06:35:15.643Z,92.84
2023-01-19T06:35:49.200Z,92.59
2023-01-19T06:36:23.311Z,93.29
2023-01-19T06:36:58.517Z,92.88
2023-01-19T06:37:34.071Z,92.82
2023-01-19T06:38:05.877Z,92.74
2023-01-19T06:38:37.538Z,92.58
2023-01-19T06:39:10.675Z,92.49
2023-01-19T06:39:43.356Z,92.89
2023-01-19T06:40:15.348Z,92.89
2023-01-19T06:40:55.778Z,93.00
2023-01-19T06:41:27.424Z,93.48
2023-01-19T06:41:59.549Z,93.40
2023-01-19T06:42:33.736Z,93.33
2023-01-19T06:43:05.990Z,92.61
2023-01-19T06:43:37.618Z,92.55
2023-01-19T06:44:09.282Z,93.04
2023-01-19T06:44:47.328Z,93.08
2023-01-19T06:45:19.078Z,92.49
2023-01-19T06:45:51.070Z,93.01
2023-01-19T06:46:22.784Z,92.99
2023-01-19T06:47:14.884Z,92.78
2023-01-19T06:47:47.842Z,92.85
2023-01-19T06:48:19.828Z,92.62
2023-01-19T06:48:51.711Z,93.28
2023-01-19T06:49:23.355Z,92.62
2023-01-19T06:49:55.032Z,92.88
2023-01-19T06:50:27.582Z,93.54
2023-01-19T06:51:02.145Z,93.40
2023-01-19T06:51:34.356Z,92.73
2023-01-19T06:52:06.000Z,92.87
2023-01-19T06:52:42.436Z,93.35
2023-01-19T06:53:16.607Z,93.34
2023-01-19T06:53:51.008Z,93.58
2023-01-19T06:54:22.669Z,93.46
2023-01-19T06:54:54.298Z,93.33
2023-01-19T06:55:27.694Z,93.55
2023-01-19T06:56:04.567Z,93.20
2023-01-19T06:56:36.777Z,93.05
2023-01-19T06:57:08.508Z,93.41
2023-01-19T06:57:40.349Z,93.28
2023-01-19T06:58:12.329Z,93.00
2023-01-19T06:58:43.972Z,93.43
2023-01-19T06:59:15.676Z,93.65
2023-01-19T06:59:47.321Z,93.66
2023-01-19T07:00:19.276Z,93.54
2023-01-19T07:00:51.731Z,93.46
2023-01-19T07:01:23.508Z,93.66
2023-01-19T07:01:56.674Z,93.81
2023-01-19T07:02:28.982Z,93.75
2023-01-19T07:03:01.114Z,93.53
2023-01-19T07:03:34.872Z,94.02
2023-01-19T07:04:06.547Z,92.99
2023-01-19T07:04:38.238Z,93.63
2023-01-19T07:05:17.239Z,93.71
2023-01-19T07:05:57.311Z,93.45
2023-01-19T07:06:29.009Z,93.39
2023-01-19T07:07:03.965Z,93.32
2023-01-19T07:07:36.587Z,93.59
2023-01-19T07:08:08.224Z,93.40
2023-01-19T07:08:40.154Z,93.92
2023-01-19T07:09:14.592Z,93.94
2023-01-19T07:09:47.292Z,93.47
2023-01-19T07:10:22.276Z,93.76
2023-01-19T07:11:25.495Z,93.39
2023-01-19T07:11:54.115Z,92.87
2023-01-19T07:12:25.827Z,93.37
2023-01-19T07:12:58.145Z,93.17
2023-01-19T07:13:30.716Z,93.01
2023-01-19T07:14:03.460Z,93.25
2023-01-19T07:14:35.098Z,93.69
2023-01-19T07:15:07.628Z,93.23
2023-01-19T07:15:41.916Z,93.10
2023-01-19T07:16:16.350Z,93.46
2023-01-19T07:16:48.085Z,93.21
2023-01-19T07:17:19.873Z,93.45
2023-01-19T07:17:54.405Z,93.31
2023-01-19T07:18:26.063Z,93.23
2023-01-19T07:18:57.725Z,92.82
2023-01-19T07:19:29.435Z,92.46
2023-01-19T07:20:01.792Z,92.90
2023-01-19T07:20:37.646Z,93.18
2023-01-19T07:21:09.587Z,92.92
2023-01-19T07:21:41.229Z,92.99
2023-01-19T07:22:15.091Z,92.80
2023-01-19T07:22:49.248Z,92.89
2023-01-19T07:23:23.473Z,92.87
2023-01-19T07:23:57.587Z,93.07
2023-01-19T07:24:32.281Z,93.35
2023-01-19T07:25:04.850Z,93.18
2023-01-19T07:25:36.658Z,92.37
2023-01-19T07:26:11.982Z,92.58
2023-01-19T07:26:43.617Z,92.35
2023-01-19T07:27:16.405Z,92.61
2023-01-19T07:27:50.178Z,92.80
2023-01-19T07:28:22.035Z,92.09
2023-01-19T07:28:53.678Z,92.42
2023-01-19T07:29:25.866Z,92.69